Bay City, Michigan
Current Conditions -  °F | °C
As of 1:53 PM on Friday 21 Nov 2014 (Local Time) from KMBS Reporting Station
Few Clouds Few Clouds  
Wind Chill: 16°   Ceiling: Unl
Heat Index: 26°   Visibility: 10mi
Dew Point: 13°   Wind: 10mph
Humidity: 58%   Direction: 210°SSW
Pressure: 30.41"   Gusts: NA
Location:  43.6°N, 83.88°W
Report Text: KMBS 211853Z 21009KT 10SM FEW029 M03/M11 A3041 RMK AO2 SLP310 T10331106
Loading
Personal Weather Stations






























Interactive Weather Map New forecast layout! Learn more

10-Day Weather Forecast

Advertisements
Track Severe Weather on mobile